createdAt,value
2022-12-31T00:01:59.161Z,89.48
2022-12-31T00:04:30.232Z,86.28
2022-12-31T00:07:03.445Z,86.38
2022-12-31T00:09:34.341Z,87.40
2022-12-31T00:12:04.947Z,88.83
2022-12-31T00:14:35.460Z,92.65
2022-12-31T00:17:06.262Z,91.58
2022-12-31T00:19:36.763Z,89.00
2022-12-31T00:22:10.315Z,87.51
2022-12-31T00:24:40.763Z,88.26
2022-12-31T00:27:11.347Z,92.26
2022-12-31T00:29:41.829Z,91.20
2022-12-31T00:32:12.462Z,87.85
2022-12-31T00:34:42.964Z,86.44
2022-12-31T00:37:16.065Z,85.68
2022-12-31T00:39:46.395Z,87.77
2022-12-31T00:42:16.928Z,91.53
2022-12-31T00:44:47.356Z,90.84
2022-12-31T00:47:17.833Z,88.58
2022-12-31T00:49:48.562Z,87.79
2022-12-31T00:52:21.772Z,88.42
2022-12-31T00:54:52.181Z,91.01
2022-12-31T00:57:22.772Z,89.64
2022-12-31T00:59:53.211Z,87.05
2022-12-31T01:02:23.950Z,86.71
2022-12-31T01:04:54.642Z,87.49
2022-12-31T01:07:27.715Z,90.27
2022-12-31T01:09:58.139Z,88.94
2022-12-31T01:12:28.798Z,86.21
2022-12-31T01:14:59.195Z,85.91
2022-12-31T01:17:29.916Z,86.83
2022-12-31T01:20:00.394Z,87.62
2022-12-31T01:22:33.517Z,88.72
2022-12-31T01:25:03.936Z,90.88
2022-12-31T01:27:34.501Z,89.31
2022-12-31T01:30:05.897Z,87.33
2022-12-31T01:32:36.444Z,87.85
2022-12-31T01:35:09.184Z,88.24
2022-12-31T01:37:42.248Z,88.84
2022-12-31T01:40:15.952Z,89.00
2022-12-31T01:42:46.585Z,89.56
2022-12-31T01:45:17.448Z,91.45
2022-12-31T01:47:51.431Z,89.38
2022-12-31T01:50:27.371Z,87.37
2022-12-31T01:53:03.900Z,87.36
2022-12-31T01:55:38.116Z,87.83
2022-12-31T01:58:12.660Z,91.13
2022-12-31T02:00:43.263Z,88.77
2022-12-31T02:03:14.608Z,83.04
2022-12-31T02:05:51.107Z,81.85
2022-12-31T02:08:24.495Z,83.20
2022-12-31T02:10:55.006Z,89.69
2022-12-31T02:13:26.258Z,91.42
2022-12-31T02:16:11.158Z,93.63
2022-12-31T02:18:59.129Z,83.09
2022-12-31T02:21:43.486Z,83.41
2022-12-31T02:24:58.304Z,86.28
2022-12-31T02:27:45.138Z,88.47
2022-12-31T02:30:21.533Z,89.46
2022-12-31T02:33:02.790Z,91.80
2022-12-31T02:35:40.583Z,93.63
2022-12-31T02:38:14.918Z,94.01
2022-12-31T02:40:45.373Z,93.89
2022-12-31T02:43:15.865Z,93.82
2022-12-31T02:45:54.165Z,94.17
2022-12-31T02:48:42.635Z,92.68
2022-12-31T02:51:28.360Z,89.20
2022-12-31T02:54:20.672Z,87.10
2022-12-31T02:57:01.120Z,86.26
2022-12-31T02:59:53.087Z,87.77
2022-12-31T03:02:30.129Z,89.51
2022-12-31T03:05:02.527Z,91.69
2022-12-31T03:07:35.213Z,93.34
2022-12-31T03:10:05.866Z,94.64
2022-12-31T03:12:48.325Z,94.53
2022-12-31T03:15:24.688Z,94.34
2022-12-31T03:18:04.130Z,94.29
2022-12-31T03:20:49.506Z,93.90
2022-12-31T03:23:23.165Z,94.05
2022-12-31T03:25:51.439Z,92.01
2022-12-31T03:28:23.520Z,89.81
2022-12-31T03:30:55.974Z,89.92
2022-12-31T03:33:33.086Z,91.65
2022-12-31T03:36:07.232Z,92.62
2022-12-31T03:38:37.839Z,93.07
2022-12-31T03:41:08.889Z,92.80
2022-12-31T03:43:39.494Z,92.58
2022-12-31T03:46:10.129Z,92.47
2022-12-31T03:48:43.338Z,92.88
2022-12-31T03:51:14.350Z,92.40
2022-12-31T03:53:44.912Z,90.19
2022-12-31T03:56:15.372Z,87.78
2022-12-31T03:58:45.895Z,87.57
2022-12-31T04:01:16.410Z,88.54
2022-12-31T04:03:49.668Z,90.17
2022-12-31T04:06:20.367Z,92.57
2022-12-31T04:08:50.953Z,94.02
2022-12-31T04:11:21.429Z,94.83
2022-12-31T04:13:51.954Z,95.18
2022-12-31T04:16:22.447Z,95.05
2022-12-31T04:18:55.771Z,94.01
2022-12-31T04:21:31.442Z,92.71
2022-12-31T04:24:05.614Z,93.05
2022-12-31T04:26:36.159Z,91.58
2022-12-31T04:29:07.122Z,91.23
2022-12-31T04:31:37.629Z,90.84
2022-12-31T04:34:11.113Z,91.72
2022-12-31T04:36:41.784Z,92.71
2022-12-31T04:39:12.526Z,94.03
2022-12-31T04:41:42.952Z,94.08
2022-12-31T04:44:13.628Z,94.30
2022-12-31T04:46:44.136Z,94.81
2022-12-31T04:49:17.442Z,94.63
2022-12-31T04:51:48.280Z,94.26
2022-12-31T04:54:18.818Z,94.01
2022-12-31T04:56:49.280Z,93.44
2022-12-31T04:59:19.884Z,92.89
2022-12-31T05:01:50.517Z,92.45
2022-12-31T05:04:24.396Z,91.99
2022-12-31T05:06:54.821Z,90.99
2022-12-31T05:09:27.772Z,90.95
2022-12-31T05:11:58.356Z,90.66
2022-12-31T05:14:28.924Z,90.12
2022-12-31T05:16:59.588Z,89.93
2022-12-31T05:19:32.804Z,90.18
2022-12-31T05:22:15.577Z,89.92
2022-12-31T05:24:46.018Z,89.61
2022-12-31T05:27:18.554Z,89.34
2022-12-31T05:29:49.105Z,89.10
2022-12-31T05:32:19.911Z,88.76
2022-12-31T05:34:53.822Z,88.81
2022-12-31T05:37:24.362Z,89.18
2022-12-31T05:39:55.116Z,89.80
2022-12-31T05:42:25.566Z,89.50
2022-12-31T05:44:56.164Z,89.30
2022-12-31T05:47:26.749Z,88.83
2022-12-31T05:50:00.064Z,88.70
2022-12-31T05:52:30.630Z,88.37
2022-12-31T05:55:01.326Z,87.74
2022-12-31T05:57:31.916Z,87.82
2022-12-31T06:00:02.561Z,87.13
2022-12-31T06:02:44.310Z,87.17
2022-12-31T06:05:22.469Z,86.99
2022-12-31T06:07:56.359Z,86.37
2022-12-31T06:10:26.880Z,86.62
2022-12-31T06:12:57.417Z,86.31
2022-12-31T06:15:28.020Z,86.44
2022-12-31T06:17:58.494Z,86.66
2022-12-31T06:20:31.791Z,86.67
2022-12-31T06:23:02.228Z,86.95
2022-12-31T06:25:32.777Z,86.69
2022-12-31T06:28:04.248Z,86.65
2022-12-31T06:30:34.802Z,86.80
2022-12-31T06:33:05.280Z,87.10
2022-12-31T06:35:38.528Z,87.36
2022-12-31T06:38:09.181Z,87.43
2022-12-31T06:40:40.809Z,87.46
2022-12-31T06:43:12.850Z,86.71
2022-12-31T06:45:44.340Z,86.56
2022-12-31T06:48:14.997Z,86.54
2022-12-31T06:50:48.203Z,87.39
2022-12-31T06:53:18.793Z,87.23
2022-12-31T06:55:51.664Z,87.59
2022-12-31T06:58:22.782Z,88.05
2022-12-31T07:01:00.587Z,87.89
2022-12-31T07:03:37.319Z,87.68
2022-12-31T07:06:16.465Z,87.89
2022-12-31T07:08:53.651Z,87.56
2022-12-31T07:11:26.761Z,87.46
2022-12-31T07:14:07.068Z,87.13
2022-12-31T07:16:53.463Z,87.05
2022-12-31T07:19:39.654Z,86.53
2022-12-31T07:22:18.234Z,86.23
2022-12-31T07:24:49.407Z,85.94
2022-12-31T07:27:40.268Z,85.16
2022-12-31T07:30:14.861Z,84.90
2022-12-31T07:33:17.160Z,84.64
2022-12-31T07:35:57.152Z,84.22
2022-12-31T07:38:39.845Z,84.28
2022-12-31T07:41:18.883Z,83.94
2022-12-31T07:44:01.510Z,83.13
2022-12-31T07:46:39.078Z,82.62
2022-12-31T07:49:14.239Z,82.15
2022-12-31T07:51:45.729Z,81.72
2022-12-31T07:54:18.903Z,80.61
2022-12-31T07:56:49.666Z,80.87
2022-12-31T07:59:35.683Z,80.20
2022-12-31T08:02:08.656Z,79.27
2022-12-31T08:04:51.056Z,79.80
2022-12-31T08:07:31.976Z,79.69
2022-12-31T08:10:17.511Z,79.14
2022-12-31T08:12:49.972Z,77.49
2022-12-31T08:15:28.480Z,77.84
2022-12-31T08:18:01.255Z,77.24
2022-12-31T08:20:35.600Z,76.82
2022-12-31T08:23:27.815Z,76.52
2022-12-31T08:26:13.756Z,76.27
2022-12-31T08:29:04.993Z,75.35
2022-12-31T08:31:43.443Z,75.19
2022-12-31T08:34:25.645Z,74.67
2022-12-31T08:37:03.269Z,74.59
2022-12-31T08:39:46.538Z,74.37
2022-12-31T08:42:28.705Z,73.37
2022-12-31T08:45:06.496Z,74.00
2022-12-31T08:47:48.875Z,73.86
2022-12-31T08:50:20.992Z,73.62
2022-12-31T08:52:52.133Z,73.39
2022-12-31T08:55:23.715Z,72.81
2022-12-31T08:58:15.628Z,72.17
2022-12-31T09:00:46.235Z,71.64
2022-12-31T09:03:34.841Z,71.57
2022-12-31T09:06:13.558Z,71.30
2022-12-31T09:08:54.733Z,71.15
2022-12-31T09:11:32.466Z,71.00
2022-12-31T09:14:32.660Z,69.83
2022-12-31T09:17:07.697Z,69.98
2022-12-31T09:19:38.154Z,69.75
2022-12-31T09:22:09.606Z,69.37
2022-12-31T09:24:40.849Z,69.48
2022-12-31T09:27:25.458Z,69.46
2022-12-31T09:30:06.843Z,69.51
2022-12-31T09:32:55.337Z,69.17
2022-12-31T09:35:37.545Z,68.94
2022-12-31T09:38:16.897Z,68.69
2022-12-31T09:40:58.896Z,68.29
2022-12-31T09:44:05.349Z,68.02
2022-12-31T09:47:17.915Z,67.74
2022-12-31T09:50:22.506Z,67.68
2022-12-31T09:53:09.773Z,66.64
2022-12-31T09:55:48.698Z,66.76
2022-12-31T09:58:35.629Z,66.86
2022-12-31T10:01:17.088Z,66.57
2022-12-31T10:04:09.975Z,66.12
2022-12-31T10:06:49.832Z,65.89
2022-12-31T10:09:34.004Z,65.50
2022-12-31T10:12:21.783Z,63.87
2022-12-31T10:15:08.861Z,61.83
2022-12-31T10:17:57.834Z,61.42
2022-12-31T10:20:45.249Z,59.62
2022-12-31T10:24:00.299Z,58.24
2022-12-31T10:26:40.735Z,59.78
2022-12-31T10:29:27.099Z,59.33
2022-12-31T10:32:12.333Z,58.69
2022-12-31T10:34:56.390Z,58.47
2022-12-31T10:37:42.782Z,58.01
2022-12-31T10:40:26.196Z,57.50
2022-12-31T10:43:26.375Z,56.50
2022-12-31T10:46:24.295Z,54.32
2022-12-31T10:49:34.848Z,54.31
2022-12-31T10:52:41.436Z,55.80
2022-12-31T10:55:53.464Z,51.94
2022-12-31T10:58:55.058Z,52.24
2022-12-31T11:01:36.906Z,51.77
2022-12-31T11:04:35.983Z,52.85
2022-12-31T11:07:44.259Z,51.35
2022-12-31T11:10:56.137Z,50.75
2022-12-31T11:13:44.818Z,51.87
2022-12-31T11:16:41.695Z,51.38
2022-12-31T11:19:22.307Z,51.44
2022-12-31T11:22:15.909Z,48.80
2022-12-31T11:25:06.072Z,50.26
2022-12-31T11:27:56.472Z,50.13
2022-12-31T11:30:35.935Z,49.13
2022-12-31T11:33:20.227Z,48.62
2022-12-31T11:36:10.589Z,48.42
2022-12-31T11:38:46.309Z,48.93
2022-12-31T11:41:24.456Z,47.28
2022-12-31T11:44:06.004Z,48.03
2022-12-31T11:47:03.322Z,47.15
2022-12-31T11:49:53.089Z,48.31
2022-12-31T11:52:39.509Z,48.16
2022-12-31T11:55:46.216Z,45.87
2022-12-31T11:58:20.603Z,48.42
2022-12-31T12:00:59.701Z,48.62
2022-12-31T12:03:30.911Z,48.70
2022-12-31T12:06:02.197Z,48.53
2022-12-31T12:08:34.942Z,48.97
2022-12-31T12:11:10.503Z,49.17
2022-12-31T12:13:40.990Z,49.38
2022-12-31T12:16:14.299Z,48.47
2022-12-31T12:18:48.774Z,48.78
2022-12-31T12:21:22.638Z,48.05
2022-12-31T12:23:59.832Z,47.68
2022-12-31T12:26:32.793Z,48.00
2022-12-31T12:29:11.380Z,47.35
2022-12-31T12:31:45.253Z,47.88
2022-12-31T12:34:27.313Z,47.33
2022-12-31T12:36:58.260Z,47.70
2022-12-31T12:39:31.083Z,47.51
2022-12-31T12:42:06.963Z,47.95
2022-12-31T12:44:38.680Z,47.56
2022-12-31T12:47:17.357Z,47.15
2022-12-31T12:49:49.897Z,47.01
2022-12-31T12:52:46.587Z,46.35
2022-12-31T12:55:24.320Z,46.86
2022-12-31T12:58:04.556Z,46.36
2022-12-31T13:00:41.313Z,46.67
2022-12-31T13:04:31.969Z,47.36
2022-12-31T13:06:53.596Z,47.76
2022-12-31T13:09:37.993Z,47.56
2022-12-31T13:12:17.799Z,47.68
2022-12-31T13:14:57.099Z,47.88
2022-12-31T13:17:42.158Z,47.90
2022-12-31T13:20:22.578Z,48.03
2022-12-31T13:23:05.470Z,48.17
2022-12-31T13:25:46.200Z,47.96
2022-12-31T13:28:20.110Z,48.82
2022-12-31T13:30:53.479Z,49.12
2022-12-31T13:33:27.920Z,49.19
2022-12-31T13:36:01.407Z,49.27
2022-12-31T13:38:39.760Z,49.39
2022-12-31T13:41:16.592Z,49.61
2022-12-31T13:43:53.226Z,49.39
2022-12-31T13:46:40.902Z,49.72
2022-12-31T13:49:22.172Z,49.82
2022-12-31T13:51:55.552Z,49.98
2022-12-31T13:54:37.944Z,49.93
2022-12-31T13:57:14.733Z,50.49
2022-12-31T13:59:51.682Z,50.45
2022-12-31T14:02:34.577Z,50.64
2022-12-31T14:05:12.400Z,51.01
2022-12-31T14:07:50.545Z,50.72
2022-12-31T14:10:31.309Z,51.12
2022-12-31T14:13:11.489Z,51.17
2022-12-31T14:15:50.049Z,51.60
2022-12-31T14:18:26.635Z,51.78
2022-12-31T14:21:05.131Z,52.05
2022-12-31T14:23:47.682Z,52.14
2022-12-31T14:26:28.371Z,52.43
2022-12-31T14:29:07.454Z,52.65
2022-12-31T14:32:06.746Z,52.83
2022-12-31T14:34:50.389Z,53.16
2022-12-31T14:37:30.347Z,53.52
2022-12-31T14:40:09.471Z,53.52
2022-12-31T14:42:49.342Z,53.72
2022-12-31T14:45:47.608Z,53.15
2022-12-31T14:48:32.348Z,54.02
2022-12-31T14:51:05.557Z,57.11
2022-12-31T14:53:36.085Z,60.26
2022-12-31T14:56:08.936Z,62.15
2022-12-31T14:58:43.884Z,65.68
2022-12-31T15:01:26.340Z,68.55
2022-12-31T15:03:58.968Z,70.00
2022-12-31T15:06:51.006Z,72.98
2022-12-31T15:09:44.062Z,75.76
2022-12-31T15:12:30.076Z,75.94
2022-12-31T15:15:10.885Z,77.36
2022-12-31T15:17:51.995Z,78.41
2022-12-31T15:20:51.116Z,79.91
2022-12-31T15:23:25.163Z,78.25
2022-12-31T15:26:01.342Z,76.59
2022-12-31T15:28:38.683Z,75.59
2022-12-31T15:31:20.996Z,75.67
2022-12-31T15:33:59.955Z,76.54
2022-12-31T15:36:33.347Z,76.82
2022-12-31T15:39:10.086Z,79.75
2022-12-31T15:42:03.094Z,80.10
2022-12-31T15:44:41.483Z,80.82
2022-12-31T15:47:20.720Z,82.43
2022-12-31T15:49:51.694Z,81.17
2022-12-31T15:52:28.721Z,81.03
2022-12-31T15:55:00.589Z,80.74
2022-12-31T15:57:39.993Z,79.42
2022-12-31T16:00:18.729Z,78.97
2022-12-31T16:02:55.821Z,78.65
2022-12-31T16:05:28.650Z,79.27
2022-12-31T16:08:01.270Z,80.09
2022-12-31T16:10:34.886Z,81.51
2022-12-31T16:13:06.378Z,81.23
2022-12-31T16:15:37.946Z,80.36
2022-12-31T16:18:20.749Z,81.19
2022-12-31T16:20:54.647Z,80.35
2022-12-31T16:23:27.742Z,81.49
2022-12-31T16:26:01.514Z,81.97
2022-12-31T16:28:33.920Z,83.40
2022-12-31T16:31:07.123Z,84.62
2022-12-31T16:33:40.457Z,84.86
2022-12-31T16:36:23.659Z,84.90
2022-12-31T16:38:59.736Z,85.49
2022-12-31T16:41:36.726Z,89.25
2022-12-31T16:44:07.333Z,87.02
2022-12-31T16:46:39.638Z,85.09
2022-12-31T16:49:22.304Z,83.70
2022-12-31T16:51:53.131Z,83.15
2022-12-31T16:54:33.972Z,81.83
2022-12-31T16:57:05.828Z,80.78
2022-12-31T16:59:42.900Z,80.06
2022-12-31T17:02:22.026Z,79.14
2022-12-31T17:04:56.675Z,78.25
2022-12-31T17:07:47.876Z,77.48
2022-12-31T17:10:27.036Z,76.99
2022-12-31T17:13:28.420Z,76.67
2022-12-31T17:15:50.928Z,75.87
2022-12-31T17:18:23.543Z,75.31
2022-12-31T17:20:58.341Z,74.78
2022-12-31T17:23:31.937Z,74.09
2022-12-31T17:26:06.285Z,73.83
2022-12-31T17:28:45.043Z,73.32
2022-12-31T17:31:38.324Z,73.09
2022-12-31T17:34:32.411Z,73.08
2022-12-31T17:37:18.091Z,72.90
2022-12-31T17:39:52.120Z,72.71
2022-12-31T17:42:33.062Z,72.13
2022-12-31T17:45:05.623Z,72.59
2022-12-31T17:47:41.513Z,72.22
2022-12-31T17:50:23.329Z,72.36
2022-12-31T17:53:00.412Z,73.93
2022-12-31T17:55:32.054Z,77.40
2022-12-31T17:58:08.128Z,75.59
2022-12-31T18:00:40.251Z,77.66
2022-12-31T18:03:10.883Z,76.52
2022-12-31T18:05:41.541Z,78.50
2022-12-31T18:08:14.851Z,77.25
2022-12-31T18:10:47.678Z,77.72
2022-12-31T18:13:20.816Z,77.66
2022-12-31T18:15:51.316Z,76.84
2022-12-31T18:18:25.480Z,76.26
2022-12-31T18:20:59.804Z,77.44
2022-12-31T18:23:38.642Z,80.25
2022-12-31T18:26:09.191Z,79.28
2022-12-31T18:28:39.774Z,78.37
2022-12-31T18:31:10.445Z,81.51
2022-12-31T18:33:41.118Z,80.77
2022-12-31T18:36:15.723Z,79.09
2022-12-31T18:38:48.906Z,78.69
2022-12-31T18:41:21.602Z,81.55
2022-12-31T18:43:52.476Z,81.61
2022-12-31T18:46:25.518Z,80.27
2022-12-31T18:48:56.100Z,79.65
2022-12-31T18:51:32.201Z,82.76
2022-12-31T18:54:07.010Z,82.49
2022-12-31T18:56:41.814Z,80.63
2022-12-31T18:59:15.875Z,79.78
2022-12-31T19:01:46.561Z,84.69
2022-12-31T19:04:26.672Z,83.23
2022-12-31T19:06:59.081Z,81.61
2022-12-31T19:09:50.111Z,76.55
2022-12-31T19:12:22.662Z,84.56
2022-12-31T19:14:53.063Z,84.24
2022-12-31T19:17:23.616Z,83.90
2022-12-31T19:19:54.116Z,76.59
2022-12-31T19:22:24.687Z,75.46
2022-12-31T19:24:57.903Z,77.28
2022-12-31T19:27:28.408Z,80.06
2022-12-31T19:30:00.724Z,81.79
2022-12-31T19:32:31.475Z,83.21
2022-12-31T19:35:02.052Z,85.01
2022-12-31T19:37:32.794Z,85.91
2022-12-31T19:40:06.086Z,87.03
2022-12-31T19:42:36.527Z,88.10
2022-12-31T19:45:08.154Z,88.40
2022-12-31T19:47:38.644Z,88.59
2022-12-31T19:50:10.000Z,89.26
2022-12-31T19:52:40.648Z,89.13
2022-12-31T19:55:16.296Z,88.66
2022-12-31T19:57:46.518Z,88.40
2022-12-31T20:00:19.012Z,86.28
2022-12-31T20:02:51.699Z,86.61
2022-12-31T20:05:23.198Z,85.21
2022-12-31T20:07:53.739Z,85.26
2022-12-31T20:10:26.944Z,86.90
2022-12-31T20:12:57.683Z,88.24
2022-12-31T20:15:28.267Z,88.86
2022-12-31T20:18:00.439Z,89.52
2022-12-31T20:20:32.582Z,90.09
2022-12-31T20:23:03.081Z,90.78
2022-12-31T20:25:36.315Z,90.09
2022-12-31T20:28:07.042Z,88.45
2022-12-31T20:30:39.998Z,86.83
2022-12-31T20:33:15.762Z,85.56
2022-12-31T20:35:47.894Z,84.91
2022-12-31T20:38:18.369Z,84.92
2022-12-31T20:40:51.564Z,85.52
2022-12-31T20:43:22.200Z,87.32
2022-12-31T20:45:52.808Z,88.31
2022-12-31T20:48:23.438Z,89.37
2022-12-31T20:50:57.906Z,90.67
2022-12-31T20:53:28.490Z,90.94
2022-12-31T20:56:06.252Z,91.13
2022-12-31T20:58:36.785Z,91.99
2022-12-31T21:01:09.855Z,92.00
2022-12-31T21:06:33.790Z,91.11
2022-12-31T21:09:06.405Z,90.89
2022-12-31T21:11:51.969Z,90.10
2022-12-31T21:14:22.532Z,89.49
2022-12-31T21:16:53.105Z,88.98
2022-12-31T21:19:23.672Z,88.56
2022-12-31T21:21:54.151Z,88.01
2022-12-31T21:24:24.810Z,87.61
2022-12-31T21:26:58.601Z,87.08
2022-12-31T21:29:34.310Z,86.79
2022-12-31T21:32:05.778Z,86.17
2022-12-31T21:34:36.842Z,86.28
2022-12-31T21:37:07.513Z,85.69
2022-12-31T21:39:38.139Z,85.37
2022-12-31T21:42:11.467Z,84.54
2022-12-31T21:44:42.183Z,84.49
2022-12-31T21:47:41.216Z,84.28
2022-12-31T21:50:16.097Z,84.31
2022-12-31T21:52:46.684Z,84.30
2022-12-31T21:55:29.525Z,83.69
2022-12-31T22:01:07.144Z,83.51
2022-12-31T22:03:37.834Z,83.61
2022-12-31T22:06:12.440Z,83.62
2022-12-31T22:08:44.356Z,83.89
2022-12-31T22:11:16.357Z,83.82
2022-12-31T22:13:50.614Z,83.70
2022-12-31T22:16:22.132Z,83.59
2022-12-31T22:18:53.441Z,83.48
2022-12-31T22:21:26.845Z,83.29
2022-12-31T22:23:59.758Z,82.83
2022-12-31T22:26:31.975Z,83.30
2022-12-31T22:29:05.088Z,83.76
2022-12-31T22:31:35.677Z,83.48
2022-12-31T22:34:06.256Z,83.74
2022-12-31T22:36:37.005Z,83.67
2022-12-31T22:39:07.537Z,83.48
2022-12-31T22:41:40.179Z,83.14
2022-12-31T22:44:13.240Z,83.10
2022-12-31T22:46:45.983Z,84.63
2022-12-31T22:49:17.391Z,83.65
2022-12-31T22:51:56.550Z,83.81
2022-12-31T22:54:30.270Z,84.85
2022-12-31T22:57:01.487Z,85.67
2022-12-31T22:59:34.605Z,86.84
2022-12-31T23:02:05.168Z,87.80
2022-12-31T23:04:36.031Z,89.53
2022-12-31T23:07:07.976Z,89.44
2022-12-31T23:09:50.784Z,89.77
2022-12-31T23:12:21.443Z,94.85
2022-12-31T23:15:06.988Z,93.90
2022-12-31T23:17:49.775Z,93.97
2022-12-31T23:20:36.223Z,89.60
2022-12-31T23:23:11.704Z,89.16
2022-12-31T23:25:42.948Z,93.10
2022-12-31T23:28:16.070Z,92.75
2022-12-31T23:30:49.237Z,92.46
2022-12-31T23:33:22.511Z,91.86
2022-12-31T23:35:53.311Z,94.09
2022-12-31T23:38:24.006Z,93.05
2022-12-31T23:40:54.551Z,91.61
2022-12-31T23:43:25.606Z,91.27
2022-12-31T23:45:58.795Z,94.20
2022-12-31T23:48:29.370Z,93.90
2022-12-31T23:50:59.876Z,92.64
2022-12-31T23:53:30.559Z,92.30
2022-12-31T23:56:14.846Z,93.78
2022-12-31T23:58:48.254Z,93.05
